KNZY

North Island NAS / Halsey Field Airport

San Diego, California, USA
METAR KNZY 151452Z 34004KT 10SM SCT200 12/08 A3005 RMK AO2 SLP176 T01220083 55002 PNO $
Observed Flight Rules
Dec-15 @ 14:52 UTC (an hour ago) Visual Flight Rules
Wind Visibility Clouds
340° at 4 knots 10 miles
  • Scattered at 20,000' AGL
Temperatures Readings
Current 12°C / 54°F
Dewpoint 8°C / 46°F
Humidity 77%
Altimeter 30.05" Hg
Pressure 1017.6 hPa
Elevation 8
METAR KNZY 151452Z 34004KT 10SM SCT200 12/08 A3005 RMK AO2 SLP176 T01220083 55002 PNO $
Observed Flight Rules
Dec-15 @ 14:52 UTC
(an hour ago)
VFR
Wind Visibility
340° at 4 knots 10 miles
Clouds
  • Scattered at 20,000' AGL
Temperature Dewpoint
12°C / 54°F 8°C / 46°F
Humidity Altimeter Pressure
77% 30.05" Hg 1017.6 hPa